Time;durP1;ratioP1;P1;durP2;ratioP2;P2;SDS_P1;SDS_P2;PMS_P1;PMS_P2;Temp;Humidity;BMP_temperature;BMP_pressure;BME280_temperature;BME280_humidity;BME280_pressure;Samples;Min_cycle;Max_cycle;Signal;HPM_P1;HPM_P2
2022/06/01 00:00:59;;;;;;;;;;;;;;;13.10;68.84;100020.13;5110876;28;19931;-52
2022/06/01 00:03:29;;;;;;;;;;;;;;;13.16;68.79;100024.38;5116512;28;19928;-51
2022/06/01 00:05:56;;;;;;;;;;;;;;;13.22;68.86;100020.19;5109007;28;19924;-52
2022/06/01 00:08:23;;;;;;;;;;;;;;;13.25;68.36;100019.53;5111488;28;19924;-51
2022/06/01 00:10:52;;;;;;;;;;;;;;;13.26;68.32;100012.75;5110391;28;19924;-51
2022/06/01 00:13:20;;;;;;;;;;;;;;;13.23;68.16;100029.41;5096311;28;19924;-50
2022/06/01 00:15:47;;;;;;;;;;;;;;;13.20;68.10;100033.72;5096180;28;20281;-51
2022/06/01 00:18:14;;;;;;;;;;;;;;;13.17;68.26;100020.41;5104457;28;19936;-50
2022/06/01 00:20:42;;;;;;;;;;;;;;;13.14;68.24;100026.69;5115682;28;19924;-51
2022/06/01 00:23:09;;;;;;;;;;;;;;;13.06;68.25;100030.38;5101309;28;20303;-54
2022/06/01 00:25:36;;;;;;;;;;;;;;;13.04;68.29;100035.50;5116566;28;19923;-51
2022/06/01 00:28:05;;;;;;;;;;;;;;;12.94;68.66;100034.75;5115731;28;19924;-51
2022/06/01 00:30:33;;;;;;;;;;;;;;;12.88;69.08;100036.13;5114695;28;19923;-51
2022/06/01 00:33:00;;;;;;;;;;;;;;;12.80;69.75;100035.00;5097581;28;20019;-51
2022/06/01 00:35:27;;;;;;;;;;;;;;;12.79;69.15;100038.16;5095761;28;19924;-53
2022/06/01 00:37:54;;;;;;;;;;;;;;;12.70;70.12;100032.63;5102163;28;19924;-52
2022/06/01 00:40:23;;;;;;;;;;;;;;;12.69;70.20;100033.78;5115018;28;20299;-51
2022/06/01 00:42:51;;;;;;;;;;;;;;;12.64;70.28;100049.94;5095682;28;19924;-52
2022/06/01 00:45:24;;;;;;;;;;;;;;;12.60;70.48;100035.84;5095217;28;19928;-52
2022/06/01 00:47:52;;;;;;;;;;;;;;;12.53;70.88;100041.13;5095513;28;19932;-51
2022/06/01 00:50:21;;;;;;;;;;;;;;;12.51;71.10;100037.84;5095454;28;20297;-50
2022/06/01 00:52:52;;;;;;;;;;;;;;;12.51;71.35;100033.06;5103868;28;19928;-52
2022/06/01 00:55:21;;;;;;;;;;;;;;;12.50;71.12;100031.44;5115864;28;19923;-50
2022/06/01 00:57:49;;;;;;;;;;;;;;;12.46;71.58;100032.47;5114282;28;19935;-51
2022/06/01 01:00:20;;;;;;;;;;;;;;;12.44;71.36;100032.81;5106997;28;19923;-53
2022/06/01 01:02:49;;;;;;;;;;;;;;;12.48;71.39;100030.16;5093827;28;19931;-51
2022/06/01 01:05:17;;;;;;;;;;;;;;;12.42;71.55;100029.53;5094676;28;19931;-52
2022/06/01 01:07:45;;;;;;;;;;;;;;;12.41;71.17;100030.69;5108677;28;19931;-51
2022/06/01 01:10:13;;;;;;;;;;;;;;;12.40;71.38;100020.66;5113874;28;19928;-53
2022/06/01 01:12:59;;;;;;;;;;;;;;;12.37;71.62;100026.94;5094712;28;19924;-53
2022/06/01 01:15:28;;;;;;;;;;;;;;;12.33;71.94;100025.97;5094500;28;20361;-51
2022/06/01 01:17:57;;;;;;;;;;;;;;;12.29;71.32;100023.03;5095083;28;19928;-50
2022/06/01 01:20:25;;;;;;;;;;;;;;;12.35;71.17;100023.66;5095024;28;19935;-51
2022/06/01 01:22:58;;;;;;;;;;;;;;;12.35;71.46;100023.66;5094018;28;19924;-51
2022/06/01 01:25:28;;;;;;;;;;;;;;;12.35;71.38;100023.66;5094509;28;19932;-52
2022/06/01 01:27:57;;;;;;;;;;;;;;;12.35;71.28;100023.66;5094002;28;19928;-51
2022/06/01 01:30:29;;;;;;;;;;;;;;;12.33;71.21;100015.63;5094821;28;19924;-51
2022/06/01 01:32:56;;;;;;;;;;;;;;;12.32;71.54;100015.94;5094601;28;19924;-50
2022/06/01 01:35:23;;;;;;;;;;;;;;;12.31;71.62;100023.50;5094422;28;19947;-52
2022/06/01 01:37:52;;;;;;;;;;;;;;;12.34;71.91;100019.22;5093986;28;19931;-52
2022/06/01 01:40:19;;;;;;;;;;;;;;;12.38;71.25;100028.56;5094577;28;19928;-51
2022/06/01 01:42:49;;;;;;;;;;;;;;;12.38;71.31;100022.97;5094248;28;19931;-50
2022/06/01 01:45:23;;;;;;;;;;;;;;;12.35;71.65;100023.66;5094473;28;19924;-51
2022/06/01 01:47:50;;;;;;;;;;;;;;;12.35;71.56;100021.69;5094281;28;19931;-53
2022/06/01 01:50:18;;;;;;;;;;;;;;;12.30;71.57;100009.88;5094216;28;19924;-51
2022/06/01 01:52:45;;;;;;;;;;;;;;;12.28;70.70;100012.19;5100085;28;19931;-54
2022/06/01 01:55:18;;;;;;;;;;;;;;;12.21;71.28;100009.13;5104116;28;19924;-54
2022/06/01 01:57:51;;;;;;;;;;;;;;;12.17;70.82;100009.78;5114936;28;20393;-51
2022/06/01 02:00:21;;;;;;;;;;;;;;;12.13;70.98;100006.03;5113855;28;20283;-52
2022/06/01 02:03:01;;;;;;;;;;;;;;;12.03;71.22;100009.19;5114871;28;19923;-51
2022/06/01 02:08:23;;;;;;;;;;;;;;;11.91;71.58;100021.09;5102148;28;19923;-54
2022/06/01 02:13:37;;;;;;;;;;;;;;;11.77;71.22;100021.25;5108912;28;20400;-52
2022/06/01 02:16:04;;;;;;;;;;;;;;;11.62;70.94;100019.00;5092835;28;19931;-53
2022/06/01 02:18:38;;;;;;;;;;;;;;;11.63;71.31;100017.84;5093596;28;19924;-51
2022/06/01 02:21:08;;;;;;;;;;;;;;;11.60;71.51;100015.72;5093598;28;19924;-51
2022/06/01 02:23:35;;;;;;;;;;;;;;;11.58;71.82;100018.03;5099416;28;19927;-50
2022/06/01 02:26:02;;;;;;;;;;;;;;;11.54;71.74;100017.06;5105595;28;20360;-52
2022/06/01 02:28:29;;;;;;;;;;;;;;;11.52;71.97;100014.59;5108710;28;19923;-51
2022/06/01 02:30:58;;;;;;;;;;;;;;;11.51;71.88;100012.97;5111813;28;19956;-51
2022/06/01 02:33:27;;;;;;;;;;;;;;;11.46;72.07;100010.34;5093675;28;19931;-51
2022/06/01 02:35:55;;;;;;;;;;;;;;;11.42;72.11;100016.94;5093640;28;20300;-51
2022/06/01 02:38:25;;;;;;;;;;;;;;;11.40;72.17;100005.28;5109643;28;19934;-50
2022/06/01 02:40:52;;;;;;;;;;;;;;;11.38;71.99;100012.03;5103617;28;19931;-52
2022/06/01 02:43:19;;;;;;;;;;;;;;;11.32;72.29;100013.34;5092936;28;19983;-50
2022/06/01 02:45:46;;;;;;;;;;;;;;;11.32;72.45;100010.56;5098938;28;20265;-50
2022/06/01 02:48:14;;;;;;;;;;;;;;;11.29;72.65;100015.97;5093126;28;19924;-51
2022/06/01 02:50:44;;;;;;;;;;;;;;;11.25;72.56;100013.00;5097041;28;19931;-51
2022/06/01 02:53:11;;;;;;;;;;;;;;;11.21;72.87;100019.59;5112242;28;20299;-51
2022/06/01 02:55:38;;;;;;;;;;;;;;;11.17;73.02;100014.69;5113471;28;19924;-51
2022/06/01 02:58:06;;;;;;;;;;;;;;;11.15;72.69;100022.56;5101403;28;19925;-50
2022/06/01 03:00:35;;;;;;;;;;;;;;;11.11;73.02;100024.34;5093862;28;20295;-51
2022/06/01 03:03:05;;;;;;;;;;;;;;;11.08;72.91;100021.41;5092922;28;19924;-51
2022/06/01 03:05:35;;;;;;;;;;;;;;;11.02;73.18;100031.06;5095135;28;20303;-54
2022/06/01 03:08:02;;;;;;;;;;;;;;;11.01;73.22;100029.44;5093156;28;19932;-50
2022/06/01 03:10:29;;;;;;;;;;;;;;;10.97;73.16;100030.09;5092746;28;19924;-52
2022/06/01 03:12:57;;;;;;;;;;;;;;;10.99;72.81;100028.97;5111993;28;19930;-54
2022/06/01 03:15:25;;;;;;;;;;;;;;;10.97;73.01;100024.50;5113050;28;19930;-53
2022/06/01 03:17:53;;;;;;;;;;;;;;;10.96;73.12;100031.25;5111995;28;19931;-53
2022/06/01 03:20:21;;;;;;;;;;;;;;;10.91;73.18;100023.03;5112872;28;19934;-52
2022/06/01 03:22:50;;;;;;;;;;;;;;;10.86;73.75;100034.34;5093596;28;19931;-50
2022/06/01 03:25:19;;;;;;;;;;;;;;;10.81;73.86;100039.25;5092841;28;19931;-50
2022/06/01 03:27:46;;;;;;;;;;;;;;;10.84;73.65;100035.84;5092530;28;19924;-51
2022/06/01 03:30:15;;;;;;;;;;;;;;;10.78;73.93;100035.19;5092932;28;19924;-50
2022/06/01 03:32:43;;;;;;;;;;;;;;;10.74;74.04;100045.31;5107558;28;19930;-50
2022/06/01 03:35:10;;;;;;;;;;;;;;;10.79;73.45;100039.59;5092478;28;20395;-52
2022/06/01 03:37:37;;;;;;;;;;;;;;;10.71;73.84;100043.22;5092262;28;19931;-50
2022/06/01 03:40:06;;;;;;;;;;;;;;;10.68;74.14;100041.06;5113258;28;19924;-50
2022/06/01 03:42:33;;;;;;;;;;;;;;;10.58;74.43;100042.19;5112488;28;19924;-53
2022/06/01 03:47:45;;;;;;;;;;;;;;;10.40;75.04;100041.34;5114051;28;20356;-51
2022/06/01 03:50:12;;;;;;;;;;;;;;;10.46;75.00;100040.03;5111255;28;19924;-51
2022/06/01 03:52:39;;;;;;;;;;;;;;;10.50;75.02;100038.25;5112914;28;19947;-53
2022/06/01 03:55:09;;;;;;;;;;;;;;;10.56;74.73;100033.31;5099127;28;19931;-51
2022/06/01 03:57:36;;;;;;;;;;;;;;;10.57;74.82;100032.19;5092376;28;19924;-50
2022/06/01 04:00:03;;;;;;;;;;;;;;;10.63;74.59;100038.44;5095984;28;19925;-51
2022/06/01 04:02:30;;;;;;;;;;;;;;;10.68;74.73;100043.84;5092208;28;20292;-50
2022/06/01 04:04:58;;;;;;;;;;;;;;;10.74;74.24;100045.31;5091804;28;20261;-51
2022/06/01 04:07:25;;;;;;;;;;;;;;;10.80;74.07;100048.78;5105911;28;19923;-50
2022/06/01 04:09:52;;;;;;;;;;;;;;;10.87;73.92;100055.50;5112444;28;19924;-50
2022/06/01 04:12:20;;;;;;;;;;;;;;;10.92;73.74;100055.34;5106314;28;19924;-50
2022/06/01 04:14:47;;;;;;;;;;;;;;;10.99;73.84;100059.63;5106156;28;20388;-50
2022/06/01 04:17:14;;;;;;;;;;;;;;;11.05;73.82;100061.09;5112592;28;19931;-51
2022/06/01 04:19:41;;;;;;;;;;;;;;;11.13;73.40;100055.50;5091805;28;19928;-51
2022/06/01 04:22:09;;;;;;;;;;;;;;;11.25;73.48;100057.63;5104884;28;19946;-50
2022/06/01 04:24:36;;;;;;;;;;;;;;;11.25;73.53;100059.59;5109788;28;19924;-50
2022/06/01 04:27:04;;;;;;;;;;;;;;;11.25;73.72;100065.16;5100051;28;20002;-52
2022/06/01 04:29:33;;;;;;;;;;;;;;;11.28;73.95;100067.31;5088005;28;19939;-50
2022/06/01 04:32:02;;;;;;;;;;;;;;;11.37;73.18;100065.31;5087879;28;20379;-52
2022/06/01 04:34:29;;;;;;;;;;;;;;;11.43;73.17;100063.19;5086647;28;19946;-51
2022/06/01 04:36:56;;;;;;;;;;;;;;;11.47;72.56;100066.97;5087539;28;19932;-54
2022/06/01 04:39:24;;;;;;;;;;;;;;;11.59;72.55;100069.91;5093470;28;19924;-51
2022/06/01 04:41:51;;;;;;;;;;;;;;;11.67;72.61;100074.63;5093260;28;19928;-51
2022/06/01 04:44:20;;;;;;;;;;;;;;;11.78;72.47;100069.53;5090788;28;19935;-51
2022/06/01 04:46:49;;;;;;;;;;;;;;;11.91;72.41;100082.47;5105441;27;19924;-51
2022/06/01 04:49:16;;;;;;;;;;;;;;;12.00;71.53;100078.84;5107076;28;19924;-51
2022/06/01 04:51:43;;;;;;;;;;;;;;;11.98;71.34;100066.03;5110093;28;19939;-52
2022/06/01 04:54:10;;;;;;;;;;;;;;;12.00;71.23;100071.28;5109883;28;19931;-53
2022/06/01 04:56:37;;;;;;;;;;;;;;;12.02;71.34;100065.38;5109025;28;19924;-51
2022/06/01 04:59:04;;;;;;;;;;;;;;;12.09;70.96;100069.25;5115598;28;19924;-50
2022/06/01 05:01:31;;;;;;;;;;;;;;;12.20;71.18;100072.53;5108616;28;19927;-51
2022/06/01 05:03:59;;;;;;;;;;;;;;;12.30;70.48;100074.09;5104534;28;19924;-51
2022/06/01 05:06:26;;;;;;;;;;;;;;;12.30;71.09;100071.31;5101396;28;19928;-52
2022/06/01 05:08:53;;;;;;;;;;;;;;;12.36;70.91;100067.19;5120128;27;19923;-50
2022/06/01 05:11:20;;;;;;;;;;;;;;;12.37;70.69;100066.84;5100941;27;19932;-50
2022/06/01 05:13:48;;;;;;;;;;;;;;;12.41;70.43;100072.59;5101113;27;19928;-53
2022/06/01 05:16:15;;;;;;;;;;;;;;;12.50;70.32;100070.56;5113679;27;20002;-53
2022/06/01 05:18:42;;;;;;;;;;;;;;;12.55;69.81;100073.16;5095564;28;19928;-51
2022/06/01 05:21:10;;;;;;;;;;;;;;;12.38;71.15;100078.84;5098100;28;19923;-53
2022/06/01 05:23:37;;;;;;;;;;;;;;;12.38;70.96;100062.06;5097677;28;19925;-51
2022/06/01 05:26:04;;;;;;;;;;;;;;;12.51;70.62;100072.19;5100675;28;19923;-52
2022/06/01 05:28:32;;;;;;;;;;;;;;;12.56;70.83;100069.22;5105931;27;20292;-52
2022/06/01 05:30:59;;;;;;;;;;;;;;;12.48;70.95;100070.06;5104229;28;19931;-52
2022/06/01 05:33:26;;;;;;;;;;;;;;;12.71;70.64;100069.78;5095783;28;19935;-52
2022/06/01 05:35:54;;;;;;;;;;;;;;;12.89;69.88;100070.47;5089791;28;20309;-53
2022/06/01 05:38:22;;;;;;;;;;;;;;;12.93;69.69;100072.25;5100570;28;19935;-54
2022/06/01 05:40:49;;;;;;;;;;;;;;;12.84;69.13;100073.47;5101247;27;19951;-52
2022/06/01 05:43:17;;;;;;;;;;;;;;;12.94;69.29;100068.28;5129705;27;19932;-53
2022/06/01 05:45:44;;;;;;;;;;;;;;;13.05;69.24;100065.09;5121181;27;19923;-54
2022/06/01 05:48:12;;;;;;;;;;;;;;;13.10;68.85;100068.53;5115279;28;19930;-53
2022/06/01 05:50:40;;;;;;;;;;;;;;;13.24;68.42;100071.00;5113411;28;19938;-55
2022/06/01 05:53:07;;;;;;;;;;;;;;;13.37;68.46;100069.94;5114656;28;19931;-52
2022/06/01 05:55:36;;;;;;;;;;;;;;;13.37;68.13;100064.34;5113753;28;19924;-55
2022/06/01 05:58:10;;;;;;;;;;;;;;;13.38;67.72;100068.78;5123277;27;19930;-52
2022/06/01 06:00:37;;;;;;;;;;;;;;;13.58;67.96;100069.09;5114919;28;19931;-54
2022/06/01 06:03:04;;;;;;;;;;;;;;;13.47;67.54;100074.28;5114256;28;19934;-55
2022/06/01 06:08:16;;;;;;;;;;;;;;;13.76;66.77;100076.16;5115146;28;19923;-55
2022/06/01 06:10:44;;;;;;;;;;;;;;;13.88;66.40;100075.38;5114336;28;19931;-55
2022/06/01 06:13:11;;;;;;;;;;;;;;;13.96;67.07;100076.41;5114807;28;19924;-55
2022/06/01 06:15:38;;;;;;;;;;;;;;;14.05;66.88;100068.75;5122926;27;19934;-53
2022/06/01 06:18:06;;;;;;;;;;;;;;;14.23;66.31;100069.34;5129156;27;19928;-53
2022/06/01 06:20:33;;;;;;;;;;;;;;;14.39;64.57;100075.06;5130925;27;19930;-55
2022/06/01 06:23:00;;;;;;;;;;;;;;;14.40;64.96;100079.50;5113357;27;19927;-54
2022/06/01 06:25:27;;;;;;;;;;;;;;;14.54;64.57;100084.75;5112827;28;19927;-55
2022/06/01 06:27:56;;;;;;;;;;;;;;;14.47;65.07;100090.97;5112228;28;19924;-55
2022/06/01 06:30:23;;;;;;;;;;;;;;;14.61;65.20;100085.00;5122746;27;19935;-54
2022/06/01 06:32:50;;;;;;;;;;;;;;;14.64;64.35;100091.91;5113235;27;19930;-53
2022/06/01 06:35:17;;;;;;;;;;;;;;;14.77;64.15;100085.94;5113058;28;19924;-54
2022/06/01 06:37:44;;;;;;;;;;;;;;;15.00;63.94;100086.25;5123568;27;19923;-53
2022/06/01 06:40:14;;;;;;;;;;;;;;;15.13;61.18;100091.84;5133304;27;19927;-52
2022/06/01 06:42:41;;;;;;;;;;;;;;;14.93;61.66;100094.44;5133184;27;19946;-55
2022/06/01 06:45:10;;;;;;;;;;;;;;;14.98;61.48;100108.22;5130013;27;19934;-55
2022/06/01 06:47:37;;;;;;;;;;;;;;;15.03;60.95;100098.75;5131637;27;19930;-53
2022/06/01 06:50:06;;;;;;;;;;;;;;;15.22;59.89;100100.91;5112509;28;19928;-54
2022/06/01 06:52:33;;;;;;;;;;;;;;;15.28;60.31;100096.69;5117918;27;19934;-53
2022/06/01 06:55:06;;;;;;;;;;;;;;;15.26;59.43;100096.22;5132762;27;19927;-54
2022/06/01 06:57:33;;;;;;;;;;;;;;;15.37;59.24;100103.00;5132818;27;19934;-55
2022/06/01 07:00:01;;;;;;;;;;;;;;;15.59;58.90;100092.38;5112720;27;19924;-54
2022/06/01 07:02:29;;;;;;;;;;;;;;;15.68;58.07;100090.22;5126806;27;20280;-55
2022/06/01 07:04:56;;;;;;;;;;;;;;;15.87;57.06;100105.59;5117745;27;20371;-54
2022/06/01 07:07:23;;;;;;;;;;;;;;;16.03;57.77;100098.03;5112471;28;19924;-54
2022/06/01 07:09:50;;;;;;;;;;;;;;;16.26;55.87;100103.03;5131979;27;19934;-55
2022/06/01 07:12:17;;;;;;;;;;;;;;;16.44;55.67;100101.47;5133232;27;19935;-52
2022/06/01 07:14:44;;;;;;;;;;;;;;;16.38;53.53;100102.94;5132251;27;20286;-52
2022/06/01 07:17:11;;;;;;;;;;;;;;;16.41;53.13;100117.06;5130840;27;19923;-56
2022/06/01 07:19:39;;;;;;;;;;;;;;;16.57;52.79;100111.47;5131715;27;20402;-53
2022/06/01 07:22:06;;;;;;;;;;;;;;;16.52;51.70;100106.09;5132068;27;19924;-53
2022/06/01 07:24:33;;;;;;;;;;;;;;;16.48;51.62;100110.81;5132304;27;19938;-56
2022/06/01 07:27:00;;;;;;;;;;;;;;;16.59;52.72;100103.47;5126434;27;19927;-54
2022/06/01 07:29:27;;;;;;;;;;;;;;;16.82;52.54;100103.66;5132320;27;19930;-55
2022/06/01 07:31:54;;;;;;;;;;;;;;;16.97;51.13;100099.16;5131599;27;20390;-56
2022/06/01 07:34:21;;;;;;;;;;;;;;;17.21;51.04;100105.72;5124589;27;20311;-54
2022/06/01 07:36:49;;;;;;;;;;;;;;;17.17;51.42;100107.63;5112197;28;19923;-53
2022/06/01 07:44:49;;;;;;;;;;;;;;;17.52;47.31;100103.97;5116003;27;19924;-56
2022/06/01 07:47:17;;;;;;;;;;;;;;;17.83;47.02;100101.00;5091688;28;19931;-55
2022/06/01 07:49:44;;;;;;;;;;;;;;;17.99;47.28;100097.25;5104568;28;20299;-54
2022/06/01 07:52:13;;;;;;;;;;;;;;;19.14;43.64;100099.16;5107507;28;20380;-57
2022/06/01 07:54:42;;;;;;;;;;;;;;;19.69;41.74;100107.94;5112775;28;19923;-57
2022/06/01 07:57:10;;;;;;;;;;;;;;;20.55;41.44;100096.72;5109555;28;19924;-56
2022/06/01 07:59:38;;;;;;;;;;;;;;;21.12;38.77;100104.81;5122646;28;20393;-57
2022/06/01 08:02:09;;;;;;;;;;;;;;;21.76;37.45;100108.00;5106699;28;19947;-55
2022/06/01 08:04:37;;;;;;;;;;;;;;;22.78;36.45;100096.38;5098729;28;19971;-57
2022/06/01 08:07:04;;;;;;;;;;;;;;;23.42;34.67;100097.50;5110399;28;19975;-56
2022/06/01 08:09:33;;;;;;;;;;;;;;;24.03;35.54;100098.03;5100251;28;19923;-54
2022/06/01 08:14:44;;;;;;;;;;;;;;;23.96;33.79;100103.78;5106988;27;19932;-55
2022/06/01 08:17:11;;;;;;;;;;;;;;;23.50;34.21;100111.25;5114850;28;19924;-55
2022/06/01 08:19:38;;;;;;;;;;;;;;;22.94;34.88;100113.00;5113651;28;20308;-57
2022/06/01 08:22:05;;;;;;;;;;;;;;;22.76;34.82;100118.69;5116947;27;19931;-57
2022/06/01 08:24:33;;;;;;;;;;;;;;;23.92;34.60;100117.22;5101145;28;19923;-55
2022/06/01 08:27:01;;;;;;;;;;;;;;;23.76;32.45;100117.69;5127547;27;19927;-57
2022/06/01 08:29:28;;;;;;;;;;;;;;;23.86;32.90;100125.34;5114793;27;19928;-57
2022/06/01 08:31:55;;;;;;;;;;;;;;;23.78;33.39;100126.59;5125525;27;19928;-57
2022/06/01 08:34:22;;;;;;;;;;;;;;;23.59;33.71;100119.34;5112359;27;19932;-57
2022/06/01 08:36:49;;;;;;;;;;;;;;;23.91;33.03;100129.78;5125683;27;19931;-54
2022/06/01 08:39:19;;;;;;;;;;;;;;;23.83;33.48;100133.91;5130591;27;19931;-55
2022/06/01 08:41:48;;;;;;;;;;;;;;;25.80;32.11;100125.69;5116162;27;19924;-57
2022/06/01 08:44:22;;;;;;;;;;;;;;;26.39;30.80;100122.44;5104332;28;19924;-57
2022/06/01 08:46:49;;;;;;;;;;;;;;;27.97;27.52;100124.47;5119080;27;19924;-54
2022/06/01 08:49:21;;;;;;;;;;;;;;;28.93;25.96;100121.34;5130898;27;20388;-54
2022/06/01 08:51:48;;;;;;;;;;;;;;;29.47;25.45;100114.97;5112365;27;19931;-53
2022/06/01 08:54:15;;;;;;;;;;;;;;;30.88;24.37;100111.47;5130539;27;19932;-54
2022/06/01 08:56:43;;;;;;;;;;;;;;;32.33;23.58;100103.56;5099983;27;20264;-55
2022/06/01 08:59:19;;;;;;;;;;;;;;;33.15;21.25;100112.94;5112533;28;19931;-52
2022/06/01 09:01:49;;;;;;;;;;;;;;;32.34;22.03;100110.94;5112211;27;19923;-52
2022/06/01 09:04:28;;;;;;;;;;;;;;;30.79;22.85;100120.78;5135441;27;20303;-54
2022/06/01 09:06:58;;;;;;;;;;;;;;;31.33;22.51;100118.91;5111772;27;19939;-52
2022/06/01 09:09:27;;;;;;;;;;;;;;;31.69;22.43;100126.25;5101182;28;19938;-55
2022/06/01 09:11:56;;;;;;;;;;;;;;;31.31;21.64;100130.06;5123410;27;19934;-52
2022/06/01 09:14:29;;;;;;;;;;;;;;;28.99;24.46;100133.88;5125797;27;19924;-56
2022/06/01 09:16:57;;;;;;;;;;;;;;;29.73;24.48;100130.25;5116781;27;19935;-57
2022/06/01 09:19:27;;;;;;;;;;;;;;;30.11;24.12;100128.69;5113412;28;19934;-57
2022/06/01 09:24:40;;;;;;;;;;;;;;;31.28;22.91;100128.13;5114799;27;20371;-58
2022/06/01 09:27:08;;;;;;;;;;;;;;;31.84;21.69;100115.78;5114972;27;19924;-56
2022/06/01 09:29:44;;;;;;;;;;;;;;;32.52;21.18;100118.84;5114441;28;19928;-55
2022/06/01 09:32:24;;;;;;;;;;;;;;;32.55;20.81;100114.25;5105665;27;19935;-55
2022/06/01 09:34:51;;;;;;;;;;;;;;;33.03;20.11;100122.50;5113368;27;20281;-53
2022/06/01 09:37:21;;;;;;;;;;;;;;;32.89;20.23;100133.41;5108091;28;19931;-54
2022/06/01 09:39:49;;;;;;;;;;;;;;;32.93;19.58;100121.72;5093622;28;20011;-55
2022/06/01 09:42:20;;;;;;;;;;;;;;;32.98;19.23;100121.06;5105147;28;19923;-55
2022/06/01 09:44:49;;;;;;;;;;;;;;;31.27;21.19;100135.19;5096252;27;19935;-54
2022/06/01 09:47:28;;;;;;;;;;;;;;;31.75;20.27;100115.72;5113911;28;19939;-55
2022/06/01 09:49:57;;;;;;;;;;;;;;;32.40;20.04;100113.19;5122710;27;20001;-55
2022/06/01 09:52:27;;;;;;;;;;;;;;;30.28;22.13;100112.97;5128350;27;19931;-55
2022/06/01 09:54:56;;;;;;;;;;;;;;;29.91;22.77;100105.94;5100042;27;19924;-57
2022/06/01 09:57:26;;;;;;;;;;;;;;;30.48;22.26;100114.84;5115089;27;19928;-55
2022/06/01 10:08:19;;;;;;;;;;;;;;;32.80;19.06;100112.38;5098188;27;19928;-56
2022/06/01 10:10:58;;;;;;;;;;;;;;;31.44;20.66;100113.59;5113058;27;19935;-54
2022/06/01 10:13:30;;;;;;;;;;;;;;;32.63;20.16;100106.09;5107130;27;19935;-53
2022/06/01 10:16:00;;;;;;;;;;;;;;;33.28;20.00;100089.69;5133381;27;19924;-53
2022/06/01 10:18:30;;;;;;;;;;;;;;;33.34;19.22;100094.31;5115796;27;19939;-53
2022/06/01 10:21:00;;;;;;;;;;;;;;;33.52;18.43;100107.97;5112461;28;19934;-55
2022/06/01 10:23:31;;;;;;;;;;;;;;;34.73;17.83;100103.44;5105937;28;19924;-55
2022/06/01 10:26:01;;;;;;;;;;;;;;;35.84;18.10;100105.44;5106308;27;19928;-53
2022/06/01 10:28:32;;;;;;;;;;;;;;;36.87;16.04;100097.06;5104271;27;19927;-55
2022/06/01 10:31:02;;;;;;;;;;;;;;;35.07;17.14;100101.28;5113119;27;19924;-55
2022/06/01 10:33:32;;;;;;;;;;;;;;;35.74;16.93;100092.34;5100306;28;19931;-53
2022/06/01 10:36:01;;;;;;;;;;;;;;;36.90;16.68;100093.16;5110007;27;19932;-56
2022/06/01 10:38:30;;;;;;;;;;;;;;;37.62;15.71;100106.22;5102350;28;19935;-55
2022/06/01 10:40:59;;;;;;;;;;;;;;;37.90;14.69;100081.09;5113257;27;19934;-56
2022/06/01 10:43:35;;;;;;;;;;;;;;;36.57;15.58;100094.25;5103524;28;19928;-56
2022/06/01 10:46:06;;;;;;;;;;;;;;;36.92;15.98;100093.44;5106847;27;19927;-56
2022/06/01 10:48:36;;;;;;;;;;;;;;;36.33;15.50;100103.94;5103786;28;19931;-53
2022/06/01 10:51:07;;;;;;;;;;;;;;;34.02;17.13;100104.03;5110893;27;19924;-55
2022/06/01 10:53:45;;;;;;;;;;;;;;;32.90;18.29;100114.78;5106557;28;19928;-55
2022/06/01 10:56:13;;;;;;;;;;;;;;;31.59;19.37;100122.50;5102922;28;19924;-53
2022/06/01 10:58:40;;;;;;;;;;;;;;;31.72;19.46;100114.59;5101237;28;19931;-56
2022/06/01 11:01:13;;;;;;;;;;;;;;;32.28;18.81;100109.97;5109004;28;19928;-55
2022/06/01 11:04:07;;;;;;;;;;;;;;;33.05;18.53;100109.19;5109867;28;20415;-55
2022/06/01 11:06:47;;;;;;;;;;;;;;;34.13;17.80;100107.25;5083860;28;20402;-54
2022/06/01 11:09:20;;;;;;;;;;;;;;;32.79;18.55;100110.78;5109458;28;19924;-55
2022/06/01 11:11:51;;;;;;;;;;;;;;;33.48;17.75;100104.44;5108437;28;19927;-53
2022/06/01 11:14:28;;;;;;;;;;;;;;;33.46;17.82;100109.09;5123998;27;19923;-55
2022/06/01 11:16:59;;;;;;;;;;;;;;;32.63;17.04;100118.41;5122956;27;20569;-54
2022/06/01 11:19:37;;;;;;;;;;;;;;;31.75;18.53;100118.59;5093138;28;19928;-55
2022/06/01 11:22:10;;;;;;;;;;;;;;;30.94;19.26;100110.41;5103026;27;19924;-53
2022/06/01 11:24:44;;;;;;;;;;;;;;;31.19;19.73;100110.81;5096315;28;19931;-52
2022/06/01 11:27:22;;;;;;;;;;;;;;;30.27;20.50;100113.44;5116622;27;19923;-53
2022/06/01 11:30:00;;;;;;;;;;;;;;;28.05;23.47;100123.84;5107252;28;19932;-52
2022/06/01 11:32:30;;;;;;;;;;;;;;;29.06;23.11;100116.50;5119132;27;19930;-55
2022/06/01 11:35:06;;;;;;;;;;;;;;;30.12;21.39;100121.69;5102506;28;19931;-52
2022/06/01 11:37:36;;;;;;;;;;;;;;;30.30;20.85;100115.41;5124498;27;19923;-55
2022/06/01 11:40:06;;;;;;;;;;;;;;;30.08;21.91;100112.38;5107328;28;20288;-55
2022/06/01 11:42:36;;;;;;;;;;;;;;;29.46;21.45;100109.69;5120920;28;19928;-55
2022/06/01 11:45:05;;;;;;;;;;;;;;;28.29;23.64;100120.88;5114296;28;19924;-52
2022/06/01 11:47:37;;;;;;;;;;;;;;;28.18;22.70;100124.00;5116214;27;19998;-53
2022/06/01 11:50:27;;;;;;;;;;;;;;;27.04;24.10;100127.88;5095247;28;19924;-54
2022/06/01 11:52:58;;;;;;;;;;;;;;;28.13;23.91;100122.44;5108854;27;20307;-55
2022/06/01 11:55:40;;;;;;;;;;;;;;;28.82;22.81;100118.75;5101858;27;19935;-55
2022/06/01 11:58:08;;;;;;;;;;;;;;;29.46;22.81;100118.28;5122132;27;19923;-55
2022/06/01 12:00:41;;;;;;;;;;;;;;;30.05;22.29;100107.53;5121034;27;19924;-52
2022/06/01 12:03:26;;;;;;;;;;;;;;;29.07;22.73;100103.78;5117930;27;19924;-52
2022/06/01 12:06:02;;;;;;;;;;;;;;;28.93;22.76;100107.00;5118026;27;19927;-52
2022/06/01 12:08:32;;;;;;;;;;;;;;;28.18;22.62;100117.44;5103476;28;19932;-52
2022/06/01 12:11:00;;;;;;;;;;;;;;;27.34;23.54;100117.59;5115922;27;20428;-54
2022/06/01 12:13:30;;;;;;;;;;;;;;;26.12;24.83;100122.44;5112851;27;19931;-55
2022/06/01 12:16:18;;;;;;;;;;;;;;;25.65;26.32;100128.72;5110209;27;19924;-52
2022/06/01 12:18:53;;;;;;;;;;;;;;;24.81;27.54;100126.34;5111717;28;19935;-54
2022/06/01 12:21:30;;;;;;;;;;;;;;;24.53;27.99;100128.22;5115785;27;19931;-52
2022/06/01 12:29:53;;;;;;;;;;;;;;;23.91;30.48;100119.22;5117526;27;19927;-55
2022/06/01 12:32:20;;;;;;;;;;;;;;;23.68;30.84;100127.44;5132703;27;20041;-55
2022/06/01 12:34:53;;;;;;;;;;;;;;;23.33;32.23;100128.38;5134451;27;20306;-55
2022/06/01 12:37:26;;;;;;;;;;;;;;;23.05;33.23;100136.53;5120002;27;19923;-55
2022/06/01 12:39:56;;;;;;;;;;;;;;;22.63;35.15;100138.16;5117904;27;20292;-52
2022/06/01 12:42:28;;;;;;;;;;;;;;;22.15;36.87;100157.53;5111508;27;20303;-52
2022/06/01 12:44:57;;;;;;;;;;;;;;;21.51;39.43;100175.09;5116571;27;19934;-53
2022/06/01 12:47:25;;;;;;;;;;;;;;;20.93;41.98;100179.53;5107731;27;19931;-52
2022/06/01 12:49:55;;;;;;;;;;;;;;;20.43;43.33;100194.84;5110724;28;19923;-54
2022/06/01 12:52:25;;;;;;;;;;;;;;;20.08;44.13;100192.44;5118280;27;19927;-52
2022/06/01 12:54:56;;;;;;;;;;;;;;;19.67;45.69;100204.41;5111125;28;19924;-52
2022/06/01 12:57:24;;;;;;;;;;;;;;;19.31;46.40;100179.69;5117572;27;19927;-51
2022/06/01 12:59:56;;;;;;;;;;;;;;;19.09;46.79;100153.97;5109716;27;20344;-51
2022/06/01 13:02:23;;;;;;;;;;;;;;;19.30;47.99;100136.50;5108275;27;19924;-54
2022/06/01 13:04:53;;;;;;;;;;;;;;;19.76;48.92;100153.28;5115999;27;19924;-50
2022/06/01 13:07:21;;;;;;;;;;;;;;;21.00;45.29;100148.47;5105254;27;19924;-51
2022/06/01 13:09:57;;;;;;;;;;;;;;;21.54;44.07;100154.47;5129315;27;20303;-51
2022/06/01 13:12:28;;;;;;;;;;;;;;;21.65;41.98;100152.50;5116373;27;19931;-52
2022/06/01 13:14:55;;;;;;;;;;;;;;;21.88;42.41;100146.50;5119355;27;20380;-52
2022/06/01 13:17:25;;;;;;;;;;;;;;;21.88;41.34;100136.00;5109865;28;19923;-54
2022/06/01 13:20:04;;;;;;;;;;;;;;;22.16;40.10;100148.63;5095712;28;19924;-52
2022/06/01 13:22:35;;;;;;;;;;;;;;;22.53;39.03;100156.00;5111010;28;19931;-52